sensor_id;sensor_type;location;lat;lon;timestamp;pressure;altitude;pressure_sealevel;temperature;humidity
60832;BME280;46665;51.558;-0.448;2022-12-10T00:00:07;100384.16;;;-2.96;100.00
60832;BME280;46665;51.558;-0.448;2022-12-10T00:02:51;100388.69;;;-2.97;100.00
60832;BME280;46665;51.558;-0.448;2022-12-10T00:05:35;100389.72;;;-2.98;100.00
60832;BME280;46665;51.558;-0.448;2022-12-10T00:08:19;100379.06;;;-2.98;100.00
60832;BME280;46665;51.558;-0.448;2022-12-10T00:11:06;100394.44;;;-2.93;100.00
60832;BME280;46665;51.558;-0.448;2022-12-10T00:13:51;100390.94;;;-2.94;100.00
60832;BME280;46665;51.558;-0.448;2022-12-10T00:16:35;100396.66;;;-2.97;100.00
60832;BME280;46665;51.558;-0.448;2022-12-10T00:19:21;100400.78;;;-2.94;100.00
60832;BME280;46665;51.558;-0.448;2022-12-10T00:22:06;100392.78;;;-2.94;100.00
60832;BME280;46665;51.558;-0.448;2022-12-10T00:24:50;100391.97;;;-2.95;100.00
60832;BME280;46665;51.558;-0.448;2022-12-10T00:27:33;100392.78;;;-2.94;100.00
60832;BME280;46665;51.558;-0.448;2022-12-10T00:30:17;100395.44;;;-2.94;100.00
60832;BME280;46665;51.558;-0.448;2022-12-10T00:33:01;100388.50;;;-2.95;100.00
60832;BME280;46665;51.558;-0.448;2022-12-10T00:35:45;100397.47;;;-2.96;100.00
60832;BME280;46665;51.558;-0.448;2022-12-10T00:38:29;100396.47;;;-2.95;100.00
60832;BME280;46665;51.558;-0.448;2022-12-10T00:41:13;100390.75;;;-2.92;100.00
60832;BME280;46665;51.558;-0.448;2022-12-10T00:43:58;100397.94;;;-2.93;100.00
60832;BME280;46665;51.558;-0.448;2022-12-10T00:46:42;100393.00;;;-2.96;100.00
60832;BME280;46665;51.558;-0.448;2022-12-10T00:49:26;100389.31;;;-2.95;100.00
60832;BME280;46665;51.558;-0.448;2022-12-10T00:52:10;100385.59;;;-3.00;100.00
60832;BME280;46665;51.558;-0.448;2022-12-10T00:54:54;100395.22;;;-2.99;100.00
60832;BME280;46665;51.558;-0.448;2022-12-10T00:57:38;100394.59;;;-3.01;100.00
60832;BME280;46665;51.558;-0.448;2022-12-10T01:00:22;100398.47;;;-3.11;100.00
60832;BME280;46665;51.558;-0.448;2022-12-10T01:03:08;100398.00;;;-3.21;100.00
60832;BME280;46665;51.558;-0.448;2022-12-10T01:05:52;100397.97;;;-3.28;100.00
60832;BME280;46665;51.558;-0.448;2022-12-10T01:08:36;100403.09;;;-3.26;100.00
60832;BME280;46665;51.558;-0.448;2022-12-10T01:11:22;100400.84;;;-3.22;100.00
60832;BME280;46665;51.558;-0.448;2022-12-10T01:14:11;100411.53;;;-3.16;100.00
60832;BME280;46665;51.558;-0.448;2022-12-10T01:16:58;100400.84;;;-3.22;100.00
60832;BME280;46665;51.558;-0.448;2022-12-10T01:19:42;100399.56;;;-3.33;100.00
60832;BME280;46665;51.558;-0.448;2022-12-10T01:22:26;100407.91;;;-3.43;100.00
60832;BME280;46665;51.558;-0.448;2022-12-10T01:25:10;100400.06;;;-3.51;100.00
60832;BME280;46665;51.558;-0.448;2022-12-10T01:27:54;100409.75;;;-3.43;100.00
60832;BME280;46665;51.558;-0.448;2022-12-10T01:30:38;100412.41;;;-3.43;100.00
60832;BME280;46665;51.558;-0.448;2022-12-10T01:33:22;100407.09;;;-3.43;100.00
60832;BME280;46665;51.558;-0.448;2022-12-10T01:36:25;100417.31;;;-3.40;100.00
60832;BME280;46665;51.558;-0.448;2022-12-10T01:39:14;100412.19;;;-3.42;100.00
60832;BME280;46665;51.558;-0.448;2022-12-10T01:42:00;100409.16;;;-3.39;100.00
60832;BME280;46665;51.558;-0.448;2022-12-10T01:47:28;100417.28;;;-3.47;100.00
60832;BME280;46665;51.558;-0.448;2022-12-10T01:50:12;100409.69;;;-3.50;100.00
60832;BME280;46665;51.558;-0.448;2022-12-10T01:52:55;100412.56;;;-3.52;100.00
60832;BME280;46665;51.558;-0.448;2022-12-10T01:55:47;100404.13;;;-3.55;100.00
60832;BME280;46665;51.558;-0.448;2022-12-10T01:58:32;100412.09;;;-3.55;100.00
60832;BME280;46665;51.558;-0.448;2022-12-10T02:04:38;100417.91;;;-3.73;100.00
60832;BME280;46665;51.558;-0.448;2022-12-10T02:16:18;100415.75;;;-3.63;100.00
60832;BME280;46665;51.558;-0.448;2022-12-10T02:22:00;100412.84;;;-3.68;100.00
60832;BME280;46665;51.558;-0.448;2022-12-10T02:24:47;100415.75;;;-3.63;100.00
60832;BME280;46665;51.558;-0.448;2022-12-10T02:27:57;100415.56;;;-3.61;100.00
60832;BME280;46665;51.558;-0.448;2022-12-10T02:30:42;100409.44;;;-3.55;100.00
60832;BME280;46665;51.558;-0.448;2022-12-10T02:33:29;100415.88;;;-3.43;100.00
60832;BME280;46665;51.558;-0.448;2022-12-10T02:36:14;100411.81;;;-3.39;100.00
60832;BME280;46665;51.558;-0.448;2022-12-10T02:39:02;100407.31;;;-3.38;100.00
60832;BME280;46665;51.558;-0.448;2022-12-10T02:41:51;100414.25;;;-3.44;100.00
60832;BME280;46665;51.558;-0.448;2022-12-10T02:44:37;100410.94;;;-3.46;100.00
60832;BME280;46665;51.558;-0.448;2022-12-10T02:47:25;100406.63;;;-3.47;100.00
60832;BME280;46665;51.558;-0.448;2022-12-10T02:50:10;100409.50;;;-3.49;100.00
60832;BME280;46665;51.558;-0.448;2022-12-10T02:52:55;100401.53;;;-3.49;100.00
60832;BME280;46665;51.558;-0.448;2022-12-10T02:55:53;100382.66;;;-3.54;100.00
60832;BME280;46665;51.558;-0.448;2022-12-10T02:58:48;100401.53;;;-3.49;100.00
60832;BME280;46665;51.558;-0.448;2022-12-10T03:02:18;100395.38;;;-3.49;100.00
60832;BME280;46665;51.558;-0.448;2022-12-10T03:05:05;100392.72;;;-3.49;100.00
60832;BME280;46665;51.558;-0.448;2022-12-10T03:07:58;100388.41;;;-3.50;100.00
60832;BME280;46665;51.558;-0.448;2022-12-10T03:13:43;100404.22;;;-3.42;100.00
60832;BME280;46665;51.558;-0.448;2022-12-10T03:16:34;100407.91;;;-3.43;100.00
60832;BME280;46665;51.558;-0.448;2022-12-10T03:19:22;100402.09;;;-3.53;100.00
60832;BME280;46665;51.558;-0.448;2022-12-10T03:22:08;100406.63;;;-3.75;100.00
60832;BME280;46665;51.558;-0.448;2022-12-10T03:24:57;100399.13;;;-3.93;100.00
60832;BME280;46665;51.558;-0.448;2022-12-10T03:27:42;100403.00;;;-3.96;100.00
60832;BME280;46665;51.558;-0.448;2022-12-10T03:30:29;100396.69;;;-3.95;100.00
60832;BME280;46665;51.558;-0.448;2022-12-10T03:33:16;100396.69;;;-3.95;100.00
60832;BME280;46665;51.558;-0.448;2022-12-10T03:36:00;100403.47;;;-3.92;100.00
60832;BME280;46665;51.558;-0.448;2022-12-10T03:38:45;100412.28;;;-3.85;100.00
60832;BME280;46665;51.558;-0.448;2022-12-10T03:41:29;100402.28;;;-3.83;100.00
60832;BME280;46665;51.558;-0.448;2022-12-10T03:44:13;100402.53;;;-3.78;100.00
60832;BME280;46665;51.558;-0.448;2022-12-10T03:46:57;100399.69;;;-3.76;100.00
60832;BME280;46665;51.558;-0.448;2022-12-10T03:49:42;100396.34;;;-3.85;100.00
60832;BME280;46665;51.558;-0.448;2022-12-10T03:52:26;100400.03;;;-3.86;100.00
60832;BME280;46665;51.558;-0.448;2022-12-10T03:55:10;100395.84;;;-3.95;100.00
60832;BME280;46665;51.558;-0.448;2022-12-10T03:57:54;100399.72;;;-3.98;100.00
60832;BME280;46665;51.558;-0.448;2022-12-10T04:00:38;100394.59;;;-3.99;100.00
60832;BME280;46665;51.558;-0.448;2022-12-10T04:03:22;100394.59;;;-3.99;100.00
60832;BME280;46665;51.558;-0.448;2022-12-10T04:06:09;100396.06;;;-3.97;100.00
60832;BME280;46665;51.558;-0.448;2022-12-10T04:08:54;100392.59;;;-3.97;100.00
60832;BME280;46665;51.558;-0.448;2022-12-10T04:11:38;100393.72;;;-4.06;100.00
60832;BME280;46665;51.558;-0.448;2022-12-10T04:14:22;100391.63;;;-4.11;100.00
60832;BME280;46665;51.558;-0.448;2022-12-10T04:17:24;100383.47;;;-4.09;100.00
60832;BME280;46665;51.558;-0.448;2022-12-10T04:20:09;100392.28;;;-4.09;100.00
60832;BME280;46665;51.558;-0.448;2022-12-10T04:23:14;100382.03;;;-4.12;100.00
60832;BME280;46665;51.558;-0.448;2022-12-10T04:26:16;100384.13;;;-4.07;100.00
60832;BME280;46665;51.558;-0.448;2022-12-10T04:29:23;100387.19;;;-4.04;100.00
60832;BME280;46665;51.558;-0.448;2022-12-10T04:32:08;100396.44;;;-4.00;100.00
60832;BME280;46665;51.558;-0.448;2022-12-10T04:34:52;100381.09;;;-3.98;100.00
60832;BME280;46665;51.558;-0.448;2022-12-10T04:37:36;100387.19;;;-4.04;100.00
60832;BME280;46665;51.558;-0.448;2022-12-10T04:40:20;100383.09;;;-4.06;100.00
60832;BME280;46665;51.558;-0.448;2022-12-10T04:43:04;100393.91;;;-4.08;100.00
60832;BME280;46665;51.558;-0.448;2022-12-10T04:45:48;100396.53;;;-4.15;100.00
60832;BME280;46665;51.558;-0.448;2022-12-10T04:48:32;100403.47;;;-4.14;100.00
60832;BME280;46665;51.558;-0.448;2022-12-10T04:51:16;100411.69;;;-4.08;100.00
60832;BME280;46665;51.558;-0.448;2022-12-10T04:54:00;100396.56;;;-4.08;100.00
60832;BME280;46665;51.558;-0.448;2022-12-10T04:56:45;100399.44;;;-4.09;100.00
60832;BME280;46665;51.558;-0.448;2022-12-10T04:59:29;100407.00;;;-4.06;100.00
60832;BME280;46665;51.558;-0.448;2022-12-10T05:02:13;100403.94;;;-4.10;100.00
60832;BME280;46665;51.558;-0.448;2022-12-10T05:04:56;100403.94;;;-4.10;100.00
60832;BME280;46665;51.558;-0.448;2022-12-10T05:07:40;100401.44;;;-4.11;100.00
60832;BME280;46665;51.558;-0.448;2022-12-10T05:10:24;100405.94;;;-4.12;100.00
60832;BME280;46665;51.558;-0.448;2022-12-10T05:13:08;100400.25;;;-4.09;100.00
60832;BME280;46665;51.558;-0.448;2022-12-10T05:15:52;100383.22;;;-4.15;100.00
60832;BME280;46665;51.558;-0.448;2022-12-10T05:18:36;100401.06;;;-4.08;100.00
60832;BME280;46665;51.558;-0.448;2022-12-10T05:21:22;100395.94;;;-4.10;100.00
60832;BME280;46665;51.558;-0.448;2022-12-10T05:24:06;100407.84;;;-4.27;100.00
60832;BME280;46665;51.558;-0.448;2022-12-10T05:26:51;100395.50;;;-4.35;100.00
60832;BME280;46665;51.558;-0.448;2022-12-10T05:29:35;100387.09;;;-4.39;100.00
60832;BME280;46665;51.558;-0.448;2022-12-10T05:32:19;100401.88;;;-4.51;100.00
60832;BME280;46665;51.558;-0.448;2022-12-10T05:35:03;100403.53;;;-4.50;100.00
60832;BME280;46665;51.558;-0.448;2022-12-10T05:37:47;100405.81;;;-4.47;100.00
60832;BME280;46665;51.558;-0.448;2022-12-10T05:40:38;100400.31;;;-4.45;100.00
60832;BME280;46665;51.558;-0.448;2022-12-10T05:43:22;100396.06;;;-4.40;100.00
60832;BME280;46665;51.558;-0.448;2022-12-10T05:46:09;100392.00;;;-4.36;100.00
60832;BME280;46665;51.558;-0.448;2022-12-10T05:48:54;100408.19;;;-4.30;100.00
60832;BME280;46665;51.558;-0.448;2022-12-10T05:51:38;100394.09;;;-4.31;100.00
60832;BME280;46665;51.558;-0.448;2022-12-10T05:54:22;100394.09;;;-4.31;100.00
60832;BME280;46665;51.558;-0.448;2022-12-10T05:57:06;100399.88;;;-4.27;100.00
60832;BME280;46665;51.558;-0.448;2022-12-10T05:59:50;100404.56;;;-4.29;100.00
60832;BME280;46665;51.558;-0.448;2022-12-10T06:02:34;100405.19;;;-4.27;100.00
60832;BME280;46665;51.558;-0.448;2022-12-10T06:05:18;100398.72;;;-4.40;100.00
60832;BME280;46665;51.558;-0.448;2022-12-10T06:08:02;100404.84;;;-4.39;100.00
60832;BME280;46665;51.558;-0.448;2022-12-10T06:10:46;100398.28;;;-4.43;100.00
60832;BME280;46665;51.558;-0.448;2022-12-10T06:13:30;100398.66;;;-4.46;100.00
60832;BME280;46665;51.558;-0.448;2022-12-10T06:16:14;100395.59;;;-4.43;100.00
60832;BME280;46665;51.558;-0.448;2022-12-10T06:18:58;100392.34;;;-4.45;100.00
60832;BME280;46665;51.558;-0.448;2022-12-10T06:21:42;100399.41;;;-4.52;100.00
60832;BME280;46665;51.558;-0.448;2022-12-10T06:24:26;100390.00;;;-4.55;100.00
60832;BME280;46665;51.558;-0.448;2022-12-10T06:27:10;100407.94;;;-4.57;100.00
60832;BME280;46665;51.558;-0.448;2022-12-10T06:29:54;100406.56;;;-4.53;100.00
60832;BME280;46665;51.558;-0.448;2022-12-10T06:32:38;100408.63;;;-4.48;100.00
60832;BME280;46665;51.558;-0.448;2022-12-10T06:35:23;100402.50;;;-4.49;100.00
60832;BME280;46665;51.558;-0.448;2022-12-10T06:38:07;100408.19;;;-4.52;100.00
60832;BME280;46665;51.558;-0.448;2022-12-10T06:40:51;100401.06;;;-4.51;100.00
60832;BME280;46665;51.558;-0.448;2022-12-10T06:43:37;100414.31;;;-4.51;100.00
60832;BME280;46665;51.558;-0.448;2022-12-10T06:46:20;100407.78;;;-4.55;100.00
60832;BME280;46665;51.558;-0.448;2022-12-10T06:49:04;100409.53;;;-4.63;100.00
60832;BME280;46665;51.558;-0.448;2022-12-10T06:51:49;100418.13;;;-4.61;100.00
60832;BME280;46665;51.558;-0.448;2022-12-10T06:54:33;100423.06;;;-4.58;100.00
60832;BME280;46665;51.558;-0.448;2022-12-10T06:57:17;100430.25;;;-4.51;100.00
60832;BME280;46665;51.558;-0.448;2022-12-10T07:00:02;100426.88;;;-4.45;100.00
60832;BME280;46665;51.558;-0.448;2022-12-10T07:02:47;100432.25;;;-4.39;100.00
60832;BME280;46665;51.558;-0.448;2022-12-10T07:05:31;100418.69;;;-4.44;100.00
60832;BME280;46665;51.558;-0.448;2022-12-10T07:08:15;100435.66;;;-4.45;100.00
60832;BME280;46665;51.558;-0.448;2022-12-10T07:11:06;100428.81;;;-4.54;100.00
60832;BME280;46665;51.558;-0.448;2022-12-10T07:13:51;100419.69;;;-4.66;100.00
60832;BME280;46665;51.558;-0.448;2022-12-10T07:16:35;100422.53;;;-4.68;100.00
60832;BME280;46665;51.558;-0.448;2022-12-10T07:19:19;100422.34;;;-4.66;100.00
60832;BME280;46665;51.558;-0.448;2022-12-10T07:22:03;100427.84;;;-4.68;100.00
60832;BME280;46665;51.558;-0.448;2022-12-10T07:24:48;100426.19;;;-4.69;100.00
60832;BME280;46665;51.558;-0.448;2022-12-10T07:27:32;100426.28;;;-4.62;100.00
60832;BME280;46665;51.558;-0.448;2022-12-10T07:30:16;100422.81;;;-4.63;100.00
60832;BME280;46665;51.558;-0.448;2022-12-10T07:33:00;100419.13;;;-4.62;100.00
60832;BME280;46665;51.558;-0.448;2022-12-10T07:35:45;100425.56;;;-4.71;100.00
60832;BME280;46665;51.558;-0.448;2022-12-10T07:38:29;100426.56;;;-4.72;100.00
60832;BME280;46665;51.558;-0.448;2022-12-10T07:41:13;100427.66;;;-4.81;100.00
60832;BME280;46665;51.558;-0.448;2022-12-10T07:43:58;100427.41;;;-4.86;100.00
60832;BME280;46665;51.558;-0.448;2022-12-10T07:46:42;100434.75;;;-4.88;100.00
60832;BME280;46665;51.558;-0.448;2022-12-10T07:49:26;100422.69;;;-4.91;100.00
60832;BME280;46665;51.558;-0.448;2022-12-10T07:52:10;100430.06;;;-4.86;100.00
60832;BME280;46665;51.558;-0.448;2022-12-10T07:54:54;100429.44;;;-4.88;100.00
60832;BME280;46665;51.558;-0.448;2022-12-10T07:57:38;100426.25;;;-4.98;100.00
60832;BME280;46665;51.558;-0.448;2022-12-10T08:00:22;100436.50;;;-4.95;100.00
60832;BME280;46665;51.558;-0.448;2022-12-10T08:03:06;100434.81;;;-4.96;100.00
60832;BME280;46665;51.558;-0.448;2022-12-10T08:06:13;100431.91;;;-5.02;100.00
60832;BME280;46665;51.558;-0.448;2022-12-10T08:08:58;100430.38;;;-5.11;100.00
60832;BME280;46665;51.558;-0.448;2022-12-10T08:11:42;100440.16;;;-5.11;100.00
60832;BME280;46665;51.558;-0.448;2022-12-10T08:14:26;100433.03;;;-5.11;100.00
60832;BME280;46665;51.558;-0.448;2022-12-10T08:17:10;100441.25;;;-5.06;100.00
60832;BME280;46665;51.558;-0.448;2022-12-10T08:19:54;100443.97;;;-4.99;100.00
60832;BME280;46665;51.558;-0.448;2022-12-10T08:22:38;100435.84;;;-4.97;100.00
60832;BME280;46665;51.558;-0.448;2022-12-10T08:25:23;100437.75;;;-4.91;100.00
60832;BME280;46665;51.558;-0.448;2022-12-10T08:28:07;100447.75;;;-4.93;100.00
60832;BME280;46665;51.558;-0.448;2022-12-10T08:30:52;100443.81;;;-4.97;100.00
60832;BME280;46665;51.558;-0.448;2022-12-10T08:33:37;100452.03;;;-4.92;100.00
60832;BME280;46665;51.558;-0.448;2022-12-10T08:36:21;100446.19;;;-4.88;100.00
60832;BME280;46665;51.558;-0.448;2022-12-10T08:39:05;100450.56;;;-4.80;100.00
60832;BME280;46665;51.558;-0.448;2022-12-10T08:41:49;100450.66;;;-4.73;100.00
60832;BME280;46665;51.558;-0.448;2022-12-10T08:44:33;100457.69;;;-4.66;100.00
60832;BME280;46665;51.558;-0.448;2022-12-10T08:47:17;100451.47;;;-4.58;100.00
60832;BME280;46665;51.558;-0.448;2022-12-10T08:50:02;100450.97;;;-4.47;100.00
60832;BME280;46665;51.558;-0.448;2022-12-10T08:52:46;100461.06;;;-4.36;100.00
60832;BME280;46665;51.558;-0.448;2022-12-10T08:55:30;100456.41;;;-4.33;100.00
60832;BME280;46665;51.558;-0.448;2022-12-10T08:58:14;100460.25;;;-4.36;100.00
60832;BME280;46665;51.558;-0.448;2022-12-10T09:00:58;100451.66;;;-4.38;100.00
60832;BME280;46665;51.558;-0.448;2022-12-10T09:03:45;100471.16;;;-4.31;100.00
60832;BME280;46665;51.558;-0.448;2022-12-10T09:06:29;100462.63;;;-4.26;100.00
60832;BME280;46665;51.558;-0.448;2022-12-10T09:09:13;100468.25;;;-4.15;100.00
60832;BME280;46665;51.558;-0.448;2022-12-10T09:11:57;100457.91;;;-4.09;100.00
60832;BME280;46665;51.558;-0.448;2022-12-10T09:14:41;100465.09;;;-4.03;100.00
60832;BME280;46665;51.558;-0.448;2022-12-10T09:17:25;100468.38;;;-4.01;100.00
60832;BME280;46665;51.558;-0.448;2022-12-10T09:20:09;100475.97;;;-3.98;100.00
60832;BME280;46665;51.558;-0.448;2022-12-10T09:22:53;100475.59;;;-3.95;100.00
60832;BME280;46665;51.558;-0.448;2022-12-10T09:25:37;100477.13;;;-3.86;100.00
60832;BME280;46665;51.558;-0.448;2022-12-10T09:28:21;100472.50;;;-3.77;100.00
60832;BME280;46665;51.558;-0.448;2022-12-10T09:31:07;100468.03;;;-3.70;100.00
60832;BME280;46665;51.558;-0.448;2022-12-10T09:33:52;100470.78;;;-3.63;100.00
60832;BME280;46665;51.558;-0.448;2022-12-10T09:36:37;100471.84;;;-3.58;100.00
60832;BME280;46665;51.558;-0.448;2022-12-10T09:39:21;100468.44;;;-3.45;100.00
60832;BME280;46665;51.558;-0.448;2022-12-10T09:42:28;100473.03;;;-3.32;100.00
60832;BME280;46665;51.558;-0.448;2022-12-10T09:51:21;100481.22;;;-3.06;100.00
60832;BME280;46665;51.558;-0.448;2022-12-10T09:54:29;100490.88;;;-2.98;100.00
60832;BME280;46665;51.558;-0.448;2022-12-10T09:57:28;100474.75;;;-2.90;100.00
60832;BME280;46665;51.558;-0.448;2022-12-10T10:03:06;100477.69;;;-2.78;100.00
60832;BME280;46665;51.558;-0.448;2022-12-10T10:05:56;100482.19;;;-2.72;100.00
60832;BME280;46665;51.558;-0.448;2022-12-10T10:09:07;100482.03;;;-2.64;100.00
60832;BME280;46665;51.558;-0.448;2022-12-10T10:11:55;100478.38;;;-2.56;100.00
60832;BME280;46665;51.558;-0.448;2022-12-10T10:14:39;100475.94;;;-2.51;100.00
60832;BME280;46665;51.558;-0.448;2022-12-10T10:17:33;100473.31;;;-2.44;100.00
60832;BME280;46665;51.558;-0.448;2022-12-10T10:20:19;100473.97;;;-2.35;100.00
60832;BME280;46665;51.558;-0.448;2022-12-10T10:23:03;100477.84;;;-2.31;100.00
60832;BME280;46665;51.558;-0.448;2022-12-10T10:25:47;100487.31;;;-2.22;100.00
60832;BME280;46665;51.558;-0.448;2022-12-10T10:28:31;100478.28;;;-2.21;100.00
60832;BME280;46665;51.558;-0.448;2022-12-10T10:31:27;100485.09;;;-2.12;100.00
60832;BME280;46665;51.558;-0.448;2022-12-10T10:34:20;100477.91;;;-2.11;100.00
60832;BME280;46665;51.558;-0.448;2022-12-10T10:37:05;100480.41;;;-1.97;100.00
60832;BME280;46665;51.558;-0.448;2022-12-10T10:39:50;100479.38;;;-1.89;100.00
60832;BME280;46665;51.558;-0.448;2022-12-10T10:42:37;100480.22;;;-1.82;100.00
60832;BME280;46665;51.558;-0.448;2022-12-10T10:48:18;100478.78;;;-1.58;100.00
60832;BME280;46665;51.558;-0.448;2022-12-10T10:53:56;100484.53;;;-1.34;100.00
60832;BME280;46665;51.558;-0.448;2022-12-10T10:56:42;100487.81;;;-1.25;100.00
60832;BME280;46665;51.558;-0.448;2022-12-10T10:59:34;100483.06;;;-1.17;100.00
60832;BME280;46665;51.558;-0.448;2022-12-10T11:02:34;100480.59;;;-1.05;100.00
60832;BME280;46665;51.558;-0.448;2022-12-10T11:05:26;100481.59;;;-0.99;100.00
60832;BME280;46665;51.558;-0.448;2022-12-10T11:08:17;100477.88;;;-0.92;100.00
60832;BME280;46665;51.558;-0.448;2022-12-10T11:11:04;100478.91;;;-0.86;100.00
60832;BME280;46665;51.558;-0.448;2022-12-10T11:13:48;100477.63;;;-0.77;100.00
60832;BME280;46665;51.558;-0.448;2022-12-10T11:16:32;100467.13;;;-0.72;100.00
60832;BME280;46665;51.558;-0.448;2022-12-10T11:19:20;100473.28;;;-0.64;100.00
60832;BME280;46665;51.558;-0.448;2022-12-10T11:22:22;100468.31;;;-0.54;100.00
60832;BME280;46665;51.558;-0.448;2022-12-10T11:25:11;100458.59;;;-0.42;100.00
60832;BME280;46665;51.558;-0.448;2022-12-10T11:28:06;100474.19;;;-0.32;100.00
60832;BME280;46665;51.558;-0.448;2022-12-10T11:34:13;100462.16;;;-0.16;100.00
60832;BME280;46665;51.558;-0.448;2022-12-10T11:49:26;100463.31;;;0.26;100.00
60832;BME280;46665;51.558;-0.448;2022-12-10T11:52:31;100453.75;;;0.37;100.00
60832;BME280;46665;51.558;-0.448;2022-12-10T12:04:33;100462.09;;;0.72;100.00
60832;BME280;46665;51.558;-0.448;2022-12-10T12:13:45;100448.13;;;0.89;100.00
60832;BME280;46665;51.558;-0.448;2022-12-10T12:16:45;100448.38;;;0.87;100.00
60832;BME280;46665;51.558;-0.448;2022-12-10T12:22:54;100439.50;;;1.05;100.00
60832;BME280;46665;51.558;-0.448;2022-12-10T12:25:49;100443.97;;;1.11;100.00
60832;BME280;46665;51.558;-0.448;2022-12-10T12:28:59;100447.41;;;1.18;100.00
60832;BME280;46665;51.558;-0.448;2022-12-10T12:31:41;100455.53;;;1.30;100.00
60832;BME280;46665;51.558;-0.448;2022-12-10T12:50:25;100452.22;;;1.65;100.00
60832;BME280;46665;51.558;-0.448;2022-12-10T12:53:14;100439.75;;;1.70;100.00
60832;BME280;46665;51.558;-0.448;2022-12-10T13:02:45;100448.06;;;1.81;100.00
60832;BME280;46665;51.558;-0.448;2022-12-10T13:05:34;100445.25;;;1.87;100.00
60832;BME280;46665;51.558;-0.448;2022-12-10T13:08:24;100452.03;;;1.90;100.00
60832;BME280;46665;51.558;-0.448;2022-12-10T13:17:02;100450.78;;;1.92;100.00
60832;BME280;46665;51.558;-0.448;2022-12-10T13:19:46;100450.34;;;1.95;100.00
60832;BME280;46665;51.558;-0.448;2022-12-10T13:23:00;100444.00;;;1.90;100.00
60832;BME280;46665;51.558;-0.448;2022-12-10T13:26:03;100446.09;;;1.88;100.00
60832;BME280;46665;51.558;-0.448;2022-12-10T13:28:52;100432.19;;;1.79;100.00
60832;BME280;46665;51.558;-0.448;2022-12-10T13:31:38;100443.50;;;1.81;100.00
60832;BME280;46665;51.558;-0.448;2022-12-10T13:34:30;100439.63;;;1.77;100.00
60832;BME280;46665;51.558;-0.448;2022-12-10T13:46:34;100434.25;;;1.65;100.00
60832;BME280;46665;51.558;-0.448;2022-12-10T13:49:20;100429.22;;;1.69;100.00
60832;BME280;46665;51.558;-0.448;2022-12-10T13:52:07;100418.97;;;1.66;100.00
60832;BME280;46665;51.558;-0.448;2022-12-10T13:57:57;100418.50;;;1.69;100.00
60832;BME280;46665;51.558;-0.448;2022-12-10T14:06:40;100424.81;;;1.74;100.00
60832;BME280;46665;51.558;-0.448;2022-12-10T14:09:30;100423.19;;;1.73;100.00
60832;BME280;46665;51.558;-0.448;2022-12-10T14:12:20;100423.88;;;1.69;100.00
60832;BME280;46665;51.558;-0.448;2022-12-10T14:15:17;100420.59;;;1.67;100.00
60832;BME280;46665;51.558;-0.448;2022-12-10T14:18:08;100406.91;;;1.57;100.00
60832;BME280;46665;51.558;-0.448;2022-12-10T14:20:54;100409.44;;;1.51;100.00
60832;BME280;46665;51.558;-0.448;2022-12-10T14:23:47;100415.88;;;1.50;100.00
60832;BME280;46665;51.558;-0.448;2022-12-10T14:26:35;100416.94;;;1.49;100.00
60832;BME280;46665;51.558;-0.448;2022-12-10T14:29:20;100419.22;;;1.46;100.00
60832;BME280;46665;51.558;-0.448;2022-12-10T14:32:05;100417.22;;;1.41;100.00
60832;BME280;46665;51.558;-0.448;2022-12-10T14:34:52;100415.00;;;1.38;100.00
60832;BME280;46665;51.558;-0.448;2022-12-10T14:37:41;100419.22;;;1.46;100.00
60832;BME280;46665;51.558;-0.448;2022-12-10T14:40:30;100425.03;;;1.43;100.00
60832;BME280;46665;51.558;-0.448;2022-12-10T14:43:21;100430.25;;;1.38;100.00
60832;BME280;46665;51.558;-0.448;2022-12-10T14:46:13;100423.94;;;1.32;100.00
60832;BME280;46665;51.558;-0.448;2022-12-10T14:48:57;100429.75;;;1.29;100.00
60832;BME280;46665;51.558;-0.448;2022-12-10T14:51:41;100424.22;;;1.24;100.00
60832;BME280;46665;51.558;-0.448;2022-12-10T14:54:32;100420.13;;;1.21;100.00
60832;BME280;46665;51.558;-0.448;2022-12-10T14:57:30;100417.78;;;1.13;100.00
60832;BME280;46665;51.558;-0.448;2022-12-10T15:00:21;100419.03;;;1.11;100.00
60832;BME280;46665;51.558;-0.448;2022-12-10T15:03:10;100420.53;;;1.06;100.00
60832;BME280;46665;51.558;-0.448;2022-12-10T15:05:58;100434.38;;;1.03;100.00
60832;BME280;46665;51.558;-0.448;2022-12-10T15:08:44;100432.59;;;0.97;100.00
60832;BME280;46665;51.558;-0.448;2022-12-10T15:11:29;100434.66;;;0.95;100.00
60832;BME280;46665;51.558;-0.448;2022-12-10T15:14:19;100431.84;;;0.90;100.00
60832;BME280;46665;51.558;-0.448;2022-12-10T15:17:03;100435.84;;;0.81;100.00
60832;BME280;46665;51.558;-0.448;2022-12-10T15:19:50;100431.53;;;0.80;100.00
60832;BME280;46665;51.558;-0.448;2022-12-10T15:22:34;100439.63;;;0.73;100.00
60832;BME280;46665;51.558;-0.448;2022-12-10T15:28:22;100426.00;;;0.56;100.00
60832;BME280;46665;51.558;-0.448;2022-12-10T15:31:30;100426.28;;;0.48;100.00
60832;BME280;46665;51.558;-0.448;2022-12-10T15:34:14;100424.91;;;0.39;100.00
60832;BME280;46665;51.558;-0.448;2022-12-10T15:37:01;100420.81;;;0.36;100.00
60832;BME280;46665;51.558;-0.448;2022-12-10T15:39:50;100434.66;;;0.33;100.00
60832;BME280;46665;51.558;-0.448;2022-12-10T15:42:42;100433.47;;;0.22;100.00
60832;BME280;46665;51.558;-0.448;2022-12-10T15:45:38;100433.59;;;0.09;100.00
60832;BME280;46665;51.558;-0.448;2022-12-10T15:48:24;100434.47;;;0.03;100.00
60832;BME280;46665;51.558;-0.448;2022-12-10T15:51:10;100442.72;;;-0.05;100.00
60832;BME280;46665;51.558;-0.448;2022-12-10T15:53:54;100443.81;;;-0.13;100.00
60832;BME280;46665;51.558;-0.448;2022-12-10T15:56:38;100439.53;;;-0.20;100.00
60832;BME280;46665;51.558;-0.448;2022-12-10T15:59:23;100441.47;;;-0.28;100.00
60832;BME280;46665;51.558;-0.448;2022-12-10T16:05:26;100441.91;;;-0.37;100.00
60832;BME280;46665;51.558;-0.448;2022-12-10T16:11:15;100437.22;;;-0.49;100.00
60832;BME280;46665;51.558;-0.448;2022-12-10T16:14:01;100438.69;;;-0.53;100.00
60832;BME280;46665;51.558;-0.448;2022-12-10T16:16:46;100437.09;;;-0.60;100.00
60832;BME280;46665;51.558;-0.448;2022-12-10T16:19:30;100438.97;;;-0.68;100.00